MV Schillig — ZDKV2 — position and weather

sailwx.info

Track history (hours):
 
Tides and Currents Weather Stations Pressure Air Temp Water Temp Dewpoint Dewpoint Depression Visibility Wind Speed Wind Dir Waves Ship Positions

MV Schillig

Last reported at 2017-Dec-09 18:56 UTC. Time now 2017-Dec-12 06:41 UTC.
Position N 37°03' E 023°43'.

Length 86 m; draft 4.2 m.

Type: Ship. MMSI: 236111817.

Date/timePositionNaut miles runAvg speedWind from/ knotsBaromVisibWave heightAir tempDewpointWater temp
2017-Dec-09 18:56N 37°03' E 023°43'7 9.9
2017-Dec-09 18:14N 37°08' E 023°48'8 9.9
2017-Dec-09 17:27N 37°15' E 023°53'510.2
2017-Dec-09 16:56N 37°19' E 023°56'410.2
2017-Dec-09 16:30N 37°23' E 023°59'510.5
2017-Dec-09 16:00N 37°27' E 024°03'510.5
2017-Dec-09 15:30N 37°32' E 024°07'510.3
2017-Dec-09 15:00N 37°36' E 024°10'510.3
2017-Dec-09 14:29N 37°41' E 024°13'510.4
2017-Dec-09 14:01N 37°45' E 024°17'610.8
2017-Dec-09 13:29N 37°49' E 024°22'510.9
2017-Dec-09 13:00N 37°52' E 024°27'510.5
2017-Dec-09 12:30N 37°55' E 024°33'393 7.6
2017-Dec-07 08:37N 43°35' E 028°52'111.2
2017-Dec-07 08:30N 43°36' E 028°52'611.1
2017-Dec-07 08:00N 43°42' E 028°52'511.0
2017-Dec-07 07:31N 43°47' E 028°51'510.6
2017-Dec-07 07:01N 43°53' E 028°51'510.8
2017-Dec-07 06:31N 43°58' E 028°50'2 3.9
2017-Dec-07 06:00N 43°60' E 028°50'0 1.0
2017-Dec-07 05:31N 44°00' E 028°49'0 0.9
2017-Dec-07 05:01N 44°00' E 028°49'0 0.9
2017-Dec-07 04:31N 44°01' E 028°48'0 0.8
2017-Dec-07 04:01N 44°01' E 028°48'0 0.9
2017-Dec-07 03:31N 44°01' E 028°47'0 0.8
2017-Dec-07 03:01N 44°01' E 028°47'0 0.8
2017-Dec-07 02:30N 44°02' E 028°46'0 0.8
2017-Dec-07 02:01N 44°02' E 028°46'0 0.8
2017-Dec-07 01:31N 44°02' E 028°45'0 0.6
2017-Dec-07 01:01N 44°02' E 028°45'0 0.5
2017-Dec-07 00:31N 44°02' E 028°45'5 9.3
2017-Dec-07 00:01N 44°06' E 028°42'2 4.0
2017-Dec-06 23:30N 44°06' E 028°39'0 0.0
2017-Dec-06 22:58N 44°06' E 028°39'0 0.0
2017-Dec-06 22:28N 44°06' E 028°39'0 0.0
2017-Dec-06 21:58N 44°06' E 028°39'0 0.0
2017-Dec-06 21:28N 44°06' E 028°39'0 0.0
2017-Dec-06 20:58N 44°06' E 028°39'  
2017-Dec-02 11:06N 37°58' E 024°38'111.6
2017-Dec-02 11:00N 37°57' E 024°38'511.1
2017-Dec-02 10:31N 37°53' E 024°32'510.5
2017-Dec-02 10:01N 37°50' E 024°27'510.4
2017-Dec-02 09:31N 37°47' E 024°22'510.3
2017-Dec-02 09:00N 37°43' E 024°17'510.5
2017-Dec-02 08:29N 37°39' E 024°14'510.7
2017-Dec-02 08:00N 37°34' E 024°11'510.5
2017-Dec-02 07:30N 37°29' E 024°08'510.7
2017-Dec-02 07:01N 37°25' E 024°05'510.6
2017-Dec-02 06:30N 37°20' E 024°01'510.4
2017-Dec-02 06:00N 37°16' E 023°58'510.4
2017-Dec-02 05:31N 37°11' E 023°55'510.3
2017-Dec-02 05:01N 37°06' E 023°52'510.3
2017-Dec-02 04:31N 37°02' E 023°49'1110.3
2017-Dec-02 03:27N 36°52' E 023°43'510.4
2017-Dec-02 03:00N 36°48' E 023°40'510.2
2017-Dec-02 02:30N 36°44' E 023°37'510.1
2017-Dec-02 02:00N 36°40' E 023°33'510.2
2017-Dec-02 01:30N 36°36' E 023°29'510.2
2017-Dec-02 01:01N 36°32' E 023°24'510.1
2017-Dec-02 00:30N 36°29' E 023°20'18 9.5
2017-Dec-01 22:35N 36°25' E 022°58'111.2
2017-Dec-01 22:30N 36°25' E 022°57'510.3
2017-Dec-01 22:00N 36°24' E 022°51'1610.2
2017-Dec-01 20:25N 36°15' E 022°34'390 9.8
2017-Nov-30 04:33N 36°27' E 014°30'111.3
2017-Nov-30 04:30N 36°27' E 014°29'611.3
2017-Nov-30 04:00N 36°27' E 014°22'610.9
2017-Nov-30 03:29N 36°28' E 014°15'511.1
2017-Nov-30 03:00N 36°29' E 014°09'510.5
2017-Nov-30 02:30N 36°31' E 014°02'  
Track history (hours):
 
Tides and Currents Weather Stations Pressure Air Temp Water Temp Dewpoint Dewpoint Depression Visibility Wind Speed Wind Dir Waves Ship Positions

MV Schillig

Last reported at 2017-Dec-09 18:56 UTC. Time now 2017-Dec-12 06:41 UTC.
Position N 37°03' E 023°43'.

Length 86 m; draft 4.2 m.

Type: Ship. MMSI: 236111817.

Date/timePositionNaut miles runAvg speedWind from/ knotsBaromVisibWave heightAir tempDewpointWater temp
2017-Dec-09 18:56N 37°03' E 023°43'7 9.9
2017-Dec-09 18:14N 37°08' E 023°48'8 9.9
2017-Dec-09 17:27N 37°15' E 023°53'510.2
2017-Dec-09 16:56N 37°19' E 023°56'410.2
2017-Dec-09 16:30N 37°23' E 023°59'510.5
2017-Dec-09 16:00N 37°27' E 024°03'510.5
2017-Dec-09 15:30N 37°32' E 024°07'510.3
2017-Dec-09 15:00N 37°36' E 024°10'510.3
2017-Dec-09 14:29N 37°41' E 024°13'510.4
2017-Dec-09 14:01N 37°45' E 024°17'610.8
2017-Dec-09 13:29N 37°49' E 024°22'510.9
2017-Dec-09 13:00N 37°52' E 024°27'510.5
2017-Dec-09 12:30N 37°55' E 024°33'393 7.6
2017-Dec-07 08:37N 43°35' E 028°52'111.2
2017-Dec-07 08:30N 43°36' E 028°52'611.1
2017-Dec-07 08:00N 43°42' E 028°52'511.0
2017-Dec-07 07:31N 43°47' E 028°51'510.6
2017-Dec-07 07:01N 43°53' E 028°51'510.8
2017-Dec-07 06:31N 43°58' E 028°50'2 3.9
2017-Dec-07 06:00N 43°60' E 028°50'0 1.0
2017-Dec-07 05:31N 44°00' E 028°49'0 0.9
2017-Dec-07 05:01N 44°00' E 028°49'0 0.9
2017-Dec-07 04:31N 44°01' E 028°48'0 0.8
2017-Dec-07 04:01N 44°01' E 028°48'0 0.9
2017-Dec-07 03:31N 44°01' E 028°47'0 0.8
2017-Dec-07 03:01N 44°01' E 028°47'0 0.8
2017-Dec-07 02:30N 44°02' E 028°46'0 0.8
2017-Dec-07 02:01N 44°02' E 028°46'0 0.8
2017-Dec-07 01:31N 44°02' E 028°45'0 0.6
2017-Dec-07 01:01N 44°02' E 028°45'0 0.5
2017-Dec-07 00:31N 44°02' E 028°45'5 9.3
2017-Dec-07 00:01N 44°06' E 028°42'2 4.0
2017-Dec-06 23:30N 44°06' E 028°39'0 0.0
2017-Dec-06 22:58N 44°06' E 028°39'0 0.0
2017-Dec-06 22:28N 44°06' E 028°39'0 0.0
2017-Dec-06 21:58N 44°06' E 028°39'0 0.0
2017-Dec-06 21:28N 44°06' E 028°39'0 0.0
2017-Dec-06 20:58N 44°06' E 028°39'  
2017-Dec-02 11:06N 37°58' E 024°38'111.6
2017-Dec-02 11:00N 37°57' E 024°38'511.1
2017-Dec-02 10:31N 37°53' E 024°32'510.5
2017-Dec-02 10:01N 37°50' E 024°27'510.4
2017-Dec-02 09:31N 37°47' E 024°22'510.3
2017-Dec-02 09:00N 37°43' E 024°17'510.5
2017-Dec-02 08:29N 37°39' E 024°14'510.7
2017-Dec-02 08:00N 37°34' E 024°11'510.5
2017-Dec-02 07:30N 37°29' E 024°08'510.7
2017-Dec-02 07:01N 37°25' E 024°05'510.6
2017-Dec-02 06:30N 37°20' E 024°01'510.4
2017-Dec-02 06:00N 37°16' E 023°58'510.4
2017-Dec-02 05:31N 37°11' E 023°55'510.3
2017-Dec-02 05:01N 37°06' E 023°52'510.3
2017-Dec-02 04:31N 37°02' E 023°49'1110.3
2017-Dec-02 03:27N 36°52' E 023°43'510.4
2017-Dec-02 03:00N 36°48' E 023°40'510.2
2017-Dec-02 02:30N 36°44' E 023°37'510.1
2017-Dec-02 02:00N 36°40' E 023°33'510.2
2017-Dec-02 01:30N 36°36' E 023°29'510.2
2017-Dec-02 01:01N 36°32' E 023°24'510.1
2017-Dec-02 00:30N 36°29' E 023°20'18 9.5
2017-Dec-01 22:35N 36°25' E 022°58'111.2
2017-Dec-01 22:30N 36°25' E 022°57'510.3
2017-Dec-01 22:00N 36°24' E 022°51'1610.2
2017-Dec-01 20:25N 36°15' E 022°34'390 9.8
2017-Nov-30 04:33N 36°27' E 014°30'111.3
2017-Nov-30 04:30N 36°27' E 014°29'611.3
2017-Nov-30 04:00N 36°27' E 014°22'610.9
2017-Nov-30 03:29N 36°28' E 014°15'511.1
2017-Nov-30 03:00N 36°29' E 014°09'510.5
2017-Nov-30 02:30N 36°31' E 014°02'  

Dump ship's entire track history